sensor_id;sensor_type;location;lat;lon;timestamp;P1;durP1;ratioP1;P2;durP2;ratioP2
49722;SDS011;43484;43.608;1.458;2023-03-12T00:02:19;0.90;;;0.80;;
49722;SDS011;43484;43.608;1.458;2023-03-12T00:04:46;1.50;;;1.20;;
49722;SDS011;43484;43.608;1.458;2023-03-12T00:07:13;3.88;;;1.75;;
49722;SDS011;43484;43.608;1.458;2023-03-12T00:09:39;5.22;;;1.80;;
49722;SDS011;43484;43.608;1.458;2023-03-12T00:12:06;2.53;;;1.70;;
49722;SDS011;43484;43.608;1.458;2023-03-12T00:14:33;2.25;;;1.63;;
49722;SDS011;43484;43.608;1.458;2023-03-12T00:17:00;4.15;;;1.80;;
49722;SDS011;43484;43.608;1.458;2023-03-12T00:19:27;5.43;;;1.73;;
49722;SDS011;43484;43.608;1.458;2023-03-12T00:21:53;1.75;;;1.02;;
49722;SDS011;43484;43.608;1.458;2023-03-12T00:24:20;2.25;;;1.27;;
49722;SDS011;43484;43.608;1.458;2023-03-12T00:26:47;3.85;;;1.60;;
49722;SDS011;43484;43.608;1.458;2023-03-12T00:29:13;1.40;;;1.30;;
49722;SDS011;43484;43.608;1.458;2023-03-12T00:31:40;1.83;;;1.13;;
49722;SDS011;43484;43.608;1.458;2023-03-12T00:34:07;1.88;;;1.30;;
49722;SDS011;43484;43.608;1.458;2023-03-12T00:36:34;2.40;;;1.30;;
49722;SDS011;43484;43.608;1.458;2023-03-12T00:39:01;2.15;;;1.13;;
49722;SDS011;43484;43.608;1.458;2023-03-12T00:41:28;1.33;;;1.20;;
49722;SDS011;43484;43.608;1.458;2023-03-12T00:43:55;2.72;;;1.23;;
49722;SDS011;43484;43.608;1.458;2023-03-12T00:46:22;1.98;;;0.80;;
49722;SDS011;43484;43.608;1.458;2023-03-12T00:48:49;3.00;;;1.27;;
49722;SDS011;43484;43.608;1.458;2023-03-12T00:51:16;1.63;;;1.25;;
49722;SDS011;43484;43.608;1.458;2023-03-12T00:53:43;1.63;;;1.10;;
49722;SDS011;43484;43.608;1.458;2023-03-12T00:56:09;3.03;;;1.30;;
49722;SDS011;43484;43.608;1.458;2023-03-12T00:58:36;0.98;;;0.75;;
49722;SDS011;43484;43.608;1.458;2023-03-12T01:01:04;1.83;;;0.82;;
49722;SDS011;43484;43.608;1.458;2023-03-12T01:03:31;1.55;;;0.98;;
49722;SDS011;43484;43.608;1.458;2023-03-12T01:05:57;2.13;;;1.10;;
49722;SDS011;43484;43.608;1.458;2023-03-12T01:08:24;2.60;;;0.80;;
49722;SDS011;43484;43.608;1.458;2023-03-12T01:10:51;1.92;;;1.23;;
49722;SDS011;43484;43.608;1.458;2023-03-12T01:13:18;1.58;;;0.80;;
49722;SDS011;43484;43.608;1.458;2023-03-12T01:15:45;1.88;;;0.95;;
49722;SDS011;43484;43.608;1.458;2023-03-12T01:18:12;1.13;;;0.88;;
49722;SDS011;43484;43.608;1.458;2023-03-12T01:20:39;1.73;;;0.80;;
49722;SDS011;43484;43.608;1.458;2023-03-12T01:23:06;3.08;;;1.27;;
49722;SDS011;43484;43.608;1.458;2023-03-12T01:25:34;3.83;;;0.77;;
49722;SDS011;43484;43.608;1.458;2023-03-12T01:28:01;1.60;;;0.55;;
49722;SDS011;43484;43.608;1.458;2023-03-12T01:30:28;2.58;;;0.60;;
49722;SDS011;43484;43.608;1.458;2023-03-12T01:32:56;2.90;;;0.70;;
49722;SDS011;43484;43.608;1.458;2023-03-12T01:35:23;1.67;;;0.80;;
49722;SDS011;43484;43.608;1.458;2023-03-12T01:37:49;2.30;;;0.47;;
49722;SDS011;43484;43.608;1.458;2023-03-12T01:40:17;3.55;;;0.30;;
49722;SDS011;43484;43.608;1.458;2023-03-12T01:42:55;1.10;;;0.50;;
49722;SDS011;43484;43.608;1.458;2023-03-12T01:48:29;0.40;;;0.40;;
49722;SDS011;43484;43.608;1.458;2023-03-12T01:50:59;1.13;;;0.50;;
49722;SDS011;43484;43.608;1.458;2023-03-12T01:53:27;0.57;;;0.47;;
49722;SDS011;43484;43.608;1.458;2023-03-12T01:55:56;2.70;;;0.88;;
49722;SDS011;43484;43.608;1.458;2023-03-12T01:58:25;1.38;;;0.30;;
49722;SDS011;43484;43.608;1.458;2023-03-12T02:00:54;1.30;;;0.40;;
49722;SDS011;43484;43.608;1.458;2023-03-12T02:03:21;1.15;;;0.50;;
49722;SDS011;43484;43.608;1.458;2023-03-12T02:05:50;0.68;;;0.45;;
49722;SDS011;43484;43.608;1.458;2023-03-12T02:08:20;1.70;;;0.63;;
49722;SDS011;43484;43.608;1.458;2023-03-12T02:10:48;1.25;;;0.70;;
49722;SDS011;43484;43.608;1.458;2023-03-12T02:13:15;0.98;;;0.40;;
49722;SDS011;43484;43.608;1.458;2023-03-12T02:15:42;0.45;;;0.38;;
49722;SDS011;43484;43.608;1.458;2023-03-12T02:18:10;1.13;;;0.40;;
49722;SDS011;43484;43.608;1.458;2023-03-12T02:20:42;1.25;;;0.50;;
49722;SDS011;43484;43.608;1.458;2023-03-12T02:23:34;1.17;;;0.50;;
49722;SDS011;43484;43.608;1.458;2023-03-12T02:26:11;1.00;;;0.50;;
49722;SDS011;43484;43.608;1.458;2023-03-12T02:28:39;3.45;;;0.60;;
49722;SDS011;43484;43.608;1.458;2023-03-12T02:31:10;1.05;;;0.40;;
49722;SDS011;43484;43.608;1.458;2023-03-12T02:33:39;0.60;;;0.40;;
49722;SDS011;43484;43.608;1.458;2023-03-12T02:36:05;1.33;;;0.80;;
49722;SDS011;43484;43.608;1.458;2023-03-12T02:38:45;1.95;;;0.68;;
49722;SDS011;43484;43.608;1.458;2023-03-12T02:43:46;0.73;;;0.38;;
49722;SDS011;43484;43.608;1.458;2023-03-12T02:46:17;1.00;;;0.20;;
49722;SDS011;43484;43.608;1.458;2023-03-12T02:48:43;1.10;;;0.20;;
49722;SDS011;43484;43.608;1.458;2023-03-12T02:51:10;1.02;;;0.20;;
49722;SDS011;43484;43.608;1.458;2023-03-12T02:53:37;0.10;;;0.10;;
49722;SDS011;43484;43.608;1.458;2023-03-12T02:56:04;0.25;;;0.10;;
49722;SDS011;43484;43.608;1.458;2023-03-12T02:58:31;0.20;;;0.10;;
49722;SDS011;43484;43.608;1.458;2023-03-12T03:00:58;0.38;;;0.13;;
49722;SDS011;43484;43.608;1.458;2023-03-12T03:03:25;0.52;;;0.10;;
49722;SDS011;43484;43.608;1.458;2023-03-12T03:05:52;0.20;;;0.10;;
49722;SDS011;43484;43.608;1.458;2023-03-12T03:08:19;0.65;;;0.17;;
49722;SDS011;43484;43.608;1.458;2023-03-12T03:10:45;0.20;;;0.20;;
49722;SDS011;43484;43.608;1.458;2023-03-12T03:13:12;0.25;;;0.10;;
49722;SDS011;43484;43.608;1.458;2023-03-12T03:15:38;0.30;;;0.10;;
49722;SDS011;43484;43.608;1.458;2023-03-12T03:18:05;0.45;;;0.20;;
49722;SDS011;43484;43.608;1.458;2023-03-12T03:20:32;0.20;;;0.10;;
49722;SDS011;43484;43.608;1.458;2023-03-12T03:22:58;0.75;;;0.20;;
49722;SDS011;43484;43.608;1.458;2023-03-12T03:25:25;0.85;;;0.20;;
49722;SDS011;43484;43.608;1.458;2023-03-12T03:27:52;0.30;;;0.20;;
49722;SDS011;43484;43.608;1.458;2023-03-12T03:30:19;1.45;;;0.30;;
49722;SDS011;43484;43.608;1.458;2023-03-12T03:32:47;0.38;;;0.20;;
49722;SDS011;43484;43.608;1.458;2023-03-12T03:35:15;0.45;;;0.15;;
49722;SDS011;43484;43.608;1.458;2023-03-12T03:37:42;0.80;;;0.10;;
49722;SDS011;43484;43.608;1.458;2023-03-12T03:40:09;0.10;;;0.10;;
49722;SDS011;43484;43.608;1.458;2023-03-12T03:42:38;0.25;;;0.17;;
49722;SDS011;43484;43.608;1.458;2023-03-12T03:45:05;1.20;;;0.47;;
49722;SDS011;43484;43.608;1.458;2023-03-12T03:47:33;0.28;;;0.13;;
49722;SDS011;43484;43.608;1.458;2023-03-12T03:50:00;1.20;;;0.17;;
49722;SDS011;43484;43.608;1.458;2023-03-12T03:52:27;1.13;;;0.10;;
49722;SDS011;43484;43.608;1.458;2023-03-12T03:54:53;0.50;;;0.10;;
49722;SDS011;43484;43.608;1.458;2023-03-12T03:57:22;0.40;;;0.30;;
49722;SDS011;43484;43.608;1.458;2023-03-12T03:59:48;9.73;;;0.90;;
49722;SDS011;43484;43.608;1.458;2023-03-12T04:02:15;14.18;;;2.15;;
49722;SDS011;43484;43.608;1.458;2023-03-12T04:04:43;18.95;;;1.83;;
49722;SDS011;43484;43.608;1.458;2023-03-12T04:07:09;14.02;;;1.45;;
49722;SDS011;43484;43.608;1.458;2023-03-12T04:09:36;13.68;;;1.10;;
49722;SDS011;43484;43.608;1.458;2023-03-12T04:12:03;15.63;;;2.38;;
49722;SDS011;43484;43.608;1.458;2023-03-12T04:14:29;15.88;;;2.03;;
49722;SDS011;43484;43.608;1.458;2023-03-12T04:16:56;31.23;;;2.47;;
49722;SDS011;43484;43.608;1.458;2023-03-12T04:19:22;18.05;;;2.58;;
49722;SDS011;43484;43.608;1.458;2023-03-12T04:21:49;19.67;;;1.52;;
49722;SDS011;43484;43.608;1.458;2023-03-12T04:24:15;13.05;;;1.55;;
49722;SDS011;43484;43.608;1.458;2023-03-12T04:26:43;15.90;;;1.52;;
49722;SDS011;43484;43.608;1.458;2023-03-12T04:29:10;22.85;;;2.20;;
49722;SDS011;43484;43.608;1.458;2023-03-12T04:31:37;22.83;;;2.13;;
49722;SDS011;43484;43.608;1.458;2023-03-12T04:34:03;16.80;;;1.80;;
49722;SDS011;43484;43.608;1.458;2023-03-12T04:36:30;21.42;;;2.70;;
49722;SDS011;43484;43.608;1.458;2023-03-12T04:38:56;14.48;;;2.58;;
49722;SDS011;43484;43.608;1.458;2023-03-12T04:41:23;19.40;;;2.40;;
49722;SDS011;43484;43.608;1.458;2023-03-12T04:43:49;17.20;;;1.52;;
49722;SDS011;43484;43.608;1.458;2023-03-12T04:46:16;20.35;;;2.30;;
49722;SDS011;43484;43.608;1.458;2023-03-12T04:48:43;17.33;;;2.58;;
49722;SDS011;43484;43.608;1.458;2023-03-12T04:51:09;12.63;;;1.52;;
49722;SDS011;43484;43.608;1.458;2023-03-12T04:53:36;18.10;;;2.05;;
49722;SDS011;43484;43.608;1.458;2023-03-12T04:56:03;15.25;;;1.80;;
49722;SDS011;43484;43.608;1.458;2023-03-12T04:58:30;23.85;;;1.88;;
49722;SDS011;43484;43.608;1.458;2023-03-12T05:00:57;19.48;;;2.72;;
49722;SDS011;43484;43.608;1.458;2023-03-12T05:03:23;18.33;;;2.33;;
49722;SDS011;43484;43.608;1.458;2023-03-12T05:05:50;21.05;;;2.17;;
49722;SDS011;43484;43.608;1.458;2023-03-12T05:08:17;23.13;;;2.13;;
49722;SDS011;43484;43.608;1.458;2023-03-12T05:10:44;26.92;;;2.85;;
49722;SDS011;43484;43.608;1.458;2023-03-12T05:13:20;19.45;;;2.33;;
49722;SDS011;43484;43.608;1.458;2023-03-12T05:15:48;24.40;;;2.45;;
49722;SDS011;43484;43.608;1.458;2023-03-12T05:18:16;16.00;;;1.95;;
49722;SDS011;43484;43.608;1.458;2023-03-12T05:20:42;27.30;;;2.70;;
49722;SDS011;43484;43.608;1.458;2023-03-12T05:23:09;23.50;;;2.88;;
49722;SDS011;43484;43.608;1.458;2023-03-12T05:25:39;22.10;;;3.30;;
49722;SDS011;43484;43.608;1.458;2023-03-12T05:28:06;30.02;;;4.30;;
49722;SDS011;43484;43.608;1.458;2023-03-12T05:30:33;19.58;;;1.92;;
49722;SDS011;43484;43.608;1.458;2023-03-12T05:32:59;23.45;;;2.10;;
49722;SDS011;43484;43.608;1.458;2023-03-12T05:35:26;17.70;;;2.30;;
49722;SDS011;43484;43.608;1.458;2023-03-12T05:37:53;18.67;;;1.85;;
49722;SDS011;43484;43.608;1.458;2023-03-12T05:40:19;15.23;;;1.60;;
49722;SDS011;43484;43.608;1.458;2023-03-12T05:42:46;21.63;;;2.20;;
49722;SDS011;43484;43.608;1.458;2023-03-12T05:45:12;20.80;;;2.13;;
49722;SDS011;43484;43.608;1.458;2023-03-12T05:47:39;25.52;;;2.42;;
49722;SDS011;43484;43.608;1.458;2023-03-12T05:50:06;20.45;;;2.30;;
49722;SDS011;43484;43.608;1.458;2023-03-12T05:52:33;28.17;;;2.85;;
49722;SDS011;43484;43.608;1.458;2023-03-12T05:54:59;13.52;;;1.70;;
49722;SDS011;43484;43.608;1.458;2023-03-12T05:57:26;23.73;;;2.42;;
49722;SDS011;43484;43.608;1.458;2023-03-12T05:59:52;23.90;;;2.40;;
49722;SDS011;43484;43.608;1.458;2023-03-12T06:02:19;24.48;;;2.47;;
49722;SDS011;43484;43.608;1.458;2023-03-12T06:04:46;17.58;;;1.92;;
49722;SDS011;43484;43.608;1.458;2023-03-12T06:07:12;17.33;;;1.98;;
49722;SDS011;43484;43.608;1.458;2023-03-12T06:09:39;19.80;;;1.90;;
49722;SDS011;43484;43.608;1.458;2023-03-12T06:12:07;19.02;;;2.15;;
49722;SDS011;43484;43.608;1.458;2023-03-12T06:14:33;12.80;;;1.67;;
49722;SDS011;43484;43.608;1.458;2023-03-12T06:17:00;15.73;;;1.80;;
49722;SDS011;43484;43.608;1.458;2023-03-12T06:19:27;18.40;;;2.33;;
49722;SDS011;43484;43.608;1.458;2023-03-12T06:21:54;22.95;;;2.15;;
49722;SDS011;43484;43.608;1.458;2023-03-12T06:24:20;17.05;;;2.13;;
49722;SDS011;43484;43.608;1.458;2023-03-12T06:26:47;18.73;;;2.00;;
49722;SDS011;43484;43.608;1.458;2023-03-12T06:29:14;18.48;;;1.75;;
49722;SDS011;43484;43.608;1.458;2023-03-12T06:31:40;15.30;;;1.50;;
49722;SDS011;43484;43.608;1.458;2023-03-12T06:34:07;21.55;;;1.95;;
49722;SDS011;43484;43.608;1.458;2023-03-12T06:36:35;14.52;;;1.77;;
49722;SDS011;43484;43.608;1.458;2023-03-12T06:39:02;16.05;;;1.98;;
49722;SDS011;43484;43.608;1.458;2023-03-12T06:41:31;9.57;;;1.20;;
49722;SDS011;43484;43.608;1.458;2023-03-12T06:43:59;16.95;;;2.13;;
49722;SDS011;43484;43.608;1.458;2023-03-12T06:46:27;14.73;;;1.35;;
49722;SDS011;43484;43.608;1.458;2023-03-12T06:48:53;11.25;;;2.00;;
49722;SDS011;43484;43.608;1.458;2023-03-12T06:51:20;11.05;;;1.35;;
49722;SDS011;43484;43.608;1.458;2023-03-12T06:53:47;19.38;;;1.85;;
49722;SDS011;43484;43.608;1.458;2023-03-12T06:56:13;14.20;;;1.73;;
49722;SDS011;43484;43.608;1.458;2023-03-12T06:58:41;15.10;;;1.77;;
49722;SDS011;43484;43.608;1.458;2023-03-12T07:01:07;10.18;;;1.65;;
49722;SDS011;43484;43.608;1.458;2023-03-12T07:03:34;10.82;;;1.30;;
49722;SDS011;43484;43.608;1.458;2023-03-12T07:06:01;18.20;;;1.92;;
49722;SDS011;43484;43.608;1.458;2023-03-12T07:08:28;13.07;;;1.65;;
49722;SDS011;43484;43.608;1.458;2023-03-12T07:10:56;10.50;;;1.40;;
49722;SDS011;43484;43.608;1.458;2023-03-12T07:13:29;14.65;;;2.08;;
49722;SDS011;43484;43.608;1.458;2023-03-12T07:15:55;11.13;;;1.65;;
49722;SDS011;43484;43.608;1.458;2023-03-12T07:18:22;14.07;;;1.58;;
49722;SDS011;43484;43.608;1.458;2023-03-12T07:20:49;16.23;;;1.80;;
49722;SDS011;43484;43.608;1.458;2023-03-12T07:23:15;12.48;;;2.13;;
49722;SDS011;43484;43.608;1.458;2023-03-12T07:25:42;11.98;;;1.58;;
49722;SDS011;43484;43.608;1.458;2023-03-12T07:28:10;13.25;;;1.85;;
49722;SDS011;43484;43.608;1.458;2023-03-12T07:30:37;12.32;;;2.15;;
49722;SDS011;43484;43.608;1.458;2023-03-12T07:33:09;16.38;;;2.03;;
49722;SDS011;43484;43.608;1.458;2023-03-12T07:35:38;8.63;;;1.60;;
49722;SDS011;43484;43.608;1.458;2023-03-12T07:38:05;15.98;;;1.70;;
49722;SDS011;43484;43.608;1.458;2023-03-12T07:40:33;9.77;;;1.23;;
49722;SDS011;43484;43.608;1.458;2023-03-12T07:43:00;12.18;;;1.75;;
49722;SDS011;43484;43.608;1.458;2023-03-12T07:45:28;20.27;;;2.42;;
49722;SDS011;43484;43.608;1.458;2023-03-12T07:47:54;8.60;;;1.38;;
49722;SDS011;43484;43.608;1.458;2023-03-12T07:50:21;9.90;;;1.35;;
49722;SDS011;43484;43.608;1.458;2023-03-12T07:52:48;17.42;;;1.42;;
49722;SDS011;43484;43.608;1.458;2023-03-12T07:55:15;8.93;;;1.60;;
49722;SDS011;43484;43.608;1.458;2023-03-12T07:57:42;12.73;;;1.55;;
49722;SDS011;43484;43.608;1.458;2023-03-12T08:00:08;10.77;;;1.27;;
49722;SDS011;43484;43.608;1.458;2023-03-12T08:02:36;15.65;;;2.38;;
49722;SDS011;43484;43.608;1.458;2023-03-12T08:05:03;9.50;;;1.42;;
49722;SDS011;43484;43.608;1.458;2023-03-12T08:07:30;8.65;;;2.00;;
49722;SDS011;43484;43.608;1.458;2023-03-12T08:10:01;9.60;;;1.08;;
49722;SDS011;43484;43.608;1.458;2023-03-12T08:12:30;12.05;;;1.60;;
49722;SDS011;43484;43.608;1.458;2023-03-12T08:14:57;8.93;;;1.50;;
49722;SDS011;43484;43.608;1.458;2023-03-12T08:17:24;12.43;;;1.67;;
49722;SDS011;43484;43.608;1.458;2023-03-12T08:19:51;13.02;;;1.83;;
49722;SDS011;43484;43.608;1.458;2023-03-12T08:22:18;10.10;;;1.50;;
49722;SDS011;43484;43.608;1.458;2023-03-12T08:24:44;10.98;;;2.42;;
49722;SDS011;43484;43.608;1.458;2023-03-12T08:27:11;14.93;;;2.10;;
49722;SDS011;43484;43.608;1.458;2023-03-12T08:29:38;14.32;;;3.08;;
49722;SDS011;43484;43.608;1.458;2023-03-12T08:32:06;10.93;;;1.75;;
49722;SDS011;43484;43.608;1.458;2023-03-12T08:34:34;12.85;;;1.75;;
49722;SDS011;43484;43.608;1.458;2023-03-12T08:37:01;12.40;;;2.38;;
49722;SDS011;43484;43.608;1.458;2023-03-12T08:39:28;10.85;;;1.70;;
49722;SDS011;43484;43.608;1.458;2023-03-12T08:41:55;9.05;;;1.60;;
49722;SDS011;43484;43.608;1.458;2023-03-12T08:44:22;12.18;;;1.95;;
49722;SDS011;43484;43.608;1.458;2023-03-12T08:46:49;12.93;;;1.83;;
49722;SDS011;43484;43.608;1.458;2023-03-12T08:49:16;8.85;;;1.52;;
49722;SDS011;43484;43.608;1.458;2023-03-12T08:51:43;9.27;;;2.25;;
49722;SDS011;43484;43.608;1.458;2023-03-12T08:54:10;6.68;;;2.45;;
49722;SDS011;43484;43.608;1.458;2023-03-12T08:56:36;9.43;;;1.95;;
49722;SDS011;43484;43.608;1.458;2023-03-12T08:59:07;8.57;;;2.40;;
49722;SDS011;43484;43.608;1.458;2023-03-12T09:01:35;5.78;;;1.80;;
49722;SDS011;43484;43.608;1.458;2023-03-12T09:04:04;6.05;;;2.00;;
49722;SDS011;43484;43.608;1.458;2023-03-12T09:06:32;7.05;;;1.77;;
49722;SDS011;43484;43.608;1.458;2023-03-12T09:09:00;6.25;;;1.83;;
49722;SDS011;43484;43.608;1.458;2023-03-12T09:11:30;7.20;;;1.65;;
49722;SDS011;43484;43.608;1.458;2023-03-12T09:13:58;6.95;;;1.33;;
49722;SDS011;43484;43.608;1.458;2023-03-12T09:16:45;7.28;;;1.88;;
49722;SDS011;43484;43.608;1.458;2023-03-12T09:19:12;3.92;;;1.42;;
49722;SDS011;43484;43.608;1.458;2023-03-12T09:21:39;4.47;;;0.85;;
49722;SDS011;43484;43.608;1.458;2023-03-12T09:24:06;3.45;;;1.02;;
49722;SDS011;43484;43.608;1.458;2023-03-12T09:26:33;5.07;;;0.80;;
49722;SDS011;43484;43.608;1.458;2023-03-12T09:29:00;2.55;;;0.52;;
49722;SDS011;43484;43.608;1.458;2023-03-12T09:31:26;3.50;;;0.70;;
49722;SDS011;43484;43.608;1.458;2023-03-12T09:33:53;5.80;;;1.02;;
49722;SDS011;43484;43.608;1.458;2023-03-12T09:36:19;3.70;;;0.40;;
49722;SDS011;43484;43.608;1.458;2023-03-12T09:38:46;1.83;;;0.60;;
49722;SDS011;43484;43.608;1.458;2023-03-12T09:41:32;2.85;;;0.90;;
49722;SDS011;43484;43.608;1.458;2023-03-12T09:44:12;3.40;;;0.50;;
49722;SDS011;43484;43.608;1.458;2023-03-12T09:46:51;0.52;;;0.40;;
49722;SDS011;43484;43.608;1.458;2023-03-12T09:51:57;0.82;;;0.30;;
49722;SDS011;43484;43.608;1.458;2023-03-12T09:54:35;0.30;;;0.30;;
49722;SDS011;43484;43.608;1.458;2023-03-12T09:57:10;3.55;;;0.30;;
49722;SDS011;43484;43.608;1.458;2023-03-12T09:59:39;0.43;;;0.40;;
49722;SDS011;43484;43.608;1.458;2023-03-12T10:02:26;1.05;;;0.38;;
49722;SDS011;43484;43.608;1.458;2023-03-12T10:07:59;0.75;;;0.30;;
49722;SDS011;43484;43.608;1.458;2023-03-12T10:10:51;0.60;;;0.30;;
49722;SDS011;43484;43.608;1.458;2023-03-12T10:21:18;0.22;;;0.20;;
49722;SDS011;43484;43.608;1.458;2023-03-12T10:27:05;0.65;;;0.30;;
49722;SDS011;43484;43.608;1.458;2023-03-12T10:29:33;1.55;;;0.30;;
49722;SDS011;43484;43.608;1.458;2023-03-12T10:32:05;0.45;;;0.30;;
49722;SDS011;43484;43.608;1.458;2023-03-12T10:34:43;0.50;;;0.32;;
49722;SDS011;43484;43.608;1.458;2023-03-12T10:37:56;0.52;;;0.40;;
49722;SDS011;43484;43.608;1.458;2023-03-12T10:40:26;0.50;;;0.30;;
49722;SDS011;43484;43.608;1.458;2023-03-12T10:42:59;1.00;;;0.40;;
49722;SDS011;43484;43.608;1.458;2023-03-12T10:45:33;2.22;;;0.47;;
49722;SDS011;43484;43.608;1.458;2023-03-12T10:48:06;1.00;;;0.40;;
49722;SDS011;43484;43.608;1.458;2023-03-12T10:50:36;0.40;;;0.20;;
49722;SDS011;43484;43.608;1.458;2023-03-12T10:55:57;4.78;;;0.30;;
49722;SDS011;43484;43.608;1.458;2023-03-12T10:58:24;0.70;;;0.30;;
49722;SDS011;43484;43.608;1.458;2023-03-12T11:00:58;2.85;;;0.70;;
49722;SDS011;43484;43.608;1.458;2023-03-12T11:03:26;0.77;;;0.43;;
49722;SDS011;43484;43.608;1.458;2023-03-12T11:06:02;0.52;;;0.52;;
49722;SDS011;43484;43.608;1.458;2023-03-12T11:08:34;0.63;;;0.57;;
49722;SDS011;43484;43.608;1.458;2023-03-12T11:11:03;2.55;;;0.45;;
49722;SDS011;43484;43.608;1.458;2023-03-12T11:13:32;0.20;;;0.20;;
49722;SDS011;43484;43.608;1.458;2023-03-12T11:18:54;1.13;;;0.45;;
49722;SDS011;43484;43.608;1.458;2023-03-12T11:21:27;0.20;;;0.20;;
49722;SDS011;43484;43.608;1.458;2023-03-12T11:26:34;1.05;;;0.40;;
49722;SDS011;43484;43.608;1.458;2023-03-12T11:31:54;2.08;;;0.65;;
49722;SDS011;43484;43.608;1.458;2023-03-12T11:34:23;0.40;;;0.40;;
49722;SDS011;43484;43.608;1.458;2023-03-12T11:39:37;0.65;;;0.30;;
49722;SDS011;43484;43.608;1.458;2023-03-12T11:42:26;1.23;;;0.43;;
49722;SDS011;43484;43.608;1.458;2023-03-12T11:48:07;0.55;;;0.20;;
49722;SDS011;43484;43.608;1.458;2023-03-12T11:50:56;0.57;;;0.38;;
49722;SDS011;43484;43.608;1.458;2023-03-12T11:56:45;0.82;;;0.30;;
49722;SDS011;43484;43.608;1.458;2023-03-12T12:02:15;1.13;;;0.50;;
49722;SDS011;43484;43.608;1.458;2023-03-12T12:10:13;0.50;;;0.40;;
49722;SDS011;43484;43.608;1.458;2023-03-12T12:30:51;0.50;;;0.38;;
49722;SDS011;43484;43.608;1.458;2023-03-12T12:35:44;0.10;;;0.10;;
49722;SDS011;43484;43.608;1.458;2023-03-12T12:45:59;0.30;;;0.20;;
49722;SDS011;43484;43.608;1.458;2023-03-12T12:48:47;0.15;;;0.10;;
49722;SDS011;43484;43.608;1.458;2023-03-12T12:51:26;0.95;;;0.30;;
49722;SDS011;43484;43.608;1.458;2023-03-12T12:54:06;0.32;;;0.20;;
49722;SDS011;43484;43.608;1.458;2023-03-12T12:56:48;0.40;;;0.20;;
49722;SDS011;43484;43.608;1.458;2023-03-12T13:02:14;0.47;;;0.20;;
49722;SDS011;43484;43.608;1.458;2023-03-12T13:04:44;0.75;;;0.20;;
49722;SDS011;43484;43.608;1.458;2023-03-12T13:09:42;0.93;;;0.20;;
49722;SDS011;43484;43.608;1.458;2023-03-12T13:14:47;1.40;;;0.47;;
49722;SDS011;43484;43.608;1.458;2023-03-12T13:17:34;4.68;;;0.20;;
49722;SDS011;43484;43.608;1.458;2023-03-12T13:20:23;0.17;;;0.10;;
49722;SDS011;43484;43.608;1.458;2023-03-12T13:25:43;0.10;;;0.10;;
49722;SDS011;43484;43.608;1.458;2023-03-12T13:28:28;0.73;;;0.20;;
49722;SDS011;43484;43.608;1.458;2023-03-12T13:31:37;2.63;;;0.20;;
49722;SDS011;43484;43.608;1.458;2023-03-12T13:37:10;0.70;;;0.20;;
49722;SDS011;43484;43.608;1.458;2023-03-12T13:39:43;0.90;;;0.20;;
49722;SDS011;43484;43.608;1.458;2023-03-12T13:44:49;1.58;;;0.30;;
49722;SDS011;43484;43.608;1.458;2023-03-12T13:47:21;1.15;;;0.28;;
49722;SDS011;43484;43.608;1.458;2023-03-12T13:52:29;0.75;;;0.30;;
49722;SDS011;43484;43.608;1.458;2023-03-12T13:57:43;0.38;;;0.20;;
49722;SDS011;43484;43.608;1.458;2023-03-12T14:00:29;0.73;;;0.20;;
49722;SDS011;43484;43.608;1.458;2023-03-12T14:16:59;2.30;;;0.55;;
49722;SDS011;43484;43.608;1.458;2023-03-12T14:19:31;2.63;;;0.28;;
49722;SDS011;43484;43.608;1.458;2023-03-12T14:22:00;0.40;;;0.20;;
49722;SDS011;43484;43.608;1.458;2023-03-12T14:24:32;0.65;;;0.22;;
49722;SDS011;43484;43.608;1.458;2023-03-12T14:27:01;0.13;;;0.00;;
49722;SDS011;43484;43.608;1.458;2023-03-12T14:29:35;0.68;;;0.10;;
49722;SDS011;43484;43.608;1.458;2023-03-12T14:32:11;0.52;;;0.20;;
49722;SDS011;43484;43.608;1.458;2023-03-12T14:34:46;0.57;;;0.30;;
49722;SDS011;43484;43.608;1.458;2023-03-12T14:37:20;0.50;;;0.10;;
49722;SDS011;43484;43.608;1.458;2023-03-12T14:39:54;0.90;;;0.30;;
49722;SDS011;43484;43.608;1.458;2023-03-12T14:42:32;2.20;;;0.60;;
49722;SDS011;43484;43.608;1.458;2023-03-12T14:47:39;0.30;;;0.20;;
49722;SDS011;43484;43.608;1.458;2023-03-12T14:50:20;1.00;;;0.17;;
49722;SDS011;43484;43.608;1.458;2023-03-12T14:52:50;0.55;;;0.20;;
49722;SDS011;43484;43.608;1.458;2023-03-12T14:55:18;1.88;;;0.20;;
49722;SDS011;43484;43.608;1.458;2023-03-12T14:57:47;1.17;;;0.20;;
49722;SDS011;43484;43.608;1.458;2023-03-12T15:00:26;0.88;;;0.22;;
49722;SDS011;43484;43.608;1.458;2023-03-12T15:02:54;1.50;;;0.30;;
49722;SDS011;43484;43.608;1.458;2023-03-12T15:05:26;0.77;;;0.30;;
49722;SDS011;43484;43.608;1.458;2023-03-12T15:07:55;0.65;;;0.20;;
49722;SDS011;43484;43.608;1.458;2023-03-12T15:10:28;6.38;;;0.22;;
49722;SDS011;43484;43.608;1.458;2023-03-12T15:12:57;0.57;;;0.20;;
49722;SDS011;43484;43.608;1.458;2023-03-12T15:15:39;0.68;;;0.30;;
49722;SDS011;43484;43.608;1.458;2023-03-12T15:18:15;0.20;;;0.13;;
49722;SDS011;43484;43.608;1.458;2023-03-12T15:20:44;0.50;;;0.30;;
49722;SDS011;43484;43.608;1.458;2023-03-12T15:23:15;0.75;;;0.10;;
49722;SDS011;43484;43.608;1.458;2023-03-12T15:25:43;0.95;;;0.17;;
49722;SDS011;43484;43.608;1.458;2023-03-12T15:30:40;2.63;;;0.20;;
49722;SDS011;43484;43.608;1.458;2023-03-12T15:33:12;1.85;;;0.20;;
49722;SDS011;43484;43.608;1.458;2023-03-12T15:35:57;0.63;;;0.15;;
49722;SDS011;43484;43.608;1.458;2023-03-12T15:38:27;0.40;;;0.15;;
49722;SDS011;43484;43.608;1.458;2023-03-12T15:40:56;0.30;;;0.10;;
49722;SDS011;43484;43.608;1.458;2023-03-12T15:43:29;0.63;;;0.20;;
49722;SDS011;43484;43.608;1.458;2023-03-12T15:46:03;0.22;;;0.10;;
49722;SDS011;43484;43.608;1.458;2023-03-12T15:48:33;1.50;;;0.32;;
49722;SDS011;43484;43.608;1.458;2023-03-12T15:51:09;1.55;;;0.20;;
49722;SDS011;43484;43.608;1.458;2023-03-12T15:53:38;1.83;;;0.47;;
49722;SDS011;43484;43.608;1.458;2023-03-12T15:58:36;0.93;;;0.20;;
49722;SDS011;43484;43.608;1.458;2023-03-12T16:01:14;1.00;;;0.25;;
49722;SDS011;43484;43.608;1.458;2023-03-12T16:03:53;0.93;;;0.20;;
49722;SDS011;43484;43.608;1.458;2023-03-12T16:06:21;0.40;;;0.17;;
49722;SDS011;43484;43.608;1.458;2023-03-12T16:08:58;1.13;;;0.30;;
49722;SDS011;43484;43.608;1.458;2023-03-12T16:11:28;0.88;;;0.28;;
49722;SDS011;43484;43.608;1.458;2023-03-12T16:14:39;4.35;;;0.30;;
49722;SDS011;43484;43.608;1.458;2023-03-12T16:16:52;0.35;;;0.20;;
49722;SDS011;43484;43.608;1.458;2023-03-12T16:19:20;1.75;;;0.20;;
49722;SDS011;43484;43.608;1.458;2023-03-12T16:21:49;0.50;;;0.30;;
49722;SDS011;43484;43.608;1.458;2023-03-12T16:24:15;2.05;;;0.20;;
49722;SDS011;43484;43.608;1.458;2023-03-12T16:26:46;0.75;;;0.30;;
49722;SDS011;43484;43.608;1.458;2023-03-12T16:29:22;0.40;;;0.20;;
49722;SDS011;43484;43.608;1.458;2023-03-12T16:31:55;1.33;;;0.28;;
49722;SDS011;43484;43.608;1.458;2023-03-12T16:34:22;0.40;;;0.10;;
49722;SDS011;43484;43.608;1.458;2023-03-12T16:36:49;0.63;;;0.22;;
49722;SDS011;43484;43.608;1.458;2023-03-12T16:39:16;1.13;;;0.30;;
49722;SDS011;43484;43.608;1.458;2023-03-12T16:41:44;1.30;;;0.30;;
49722;SDS011;43484;43.608;1.458;2023-03-12T16:44:13;0.63;;;0.20;;
49722;SDS011;43484;43.608;1.458;2023-03-12T16:46:43;3.05;;;0.50;;
49722;SDS011;43484;43.608;1.458;2023-03-12T16:49:14;1.30;;;0.30;;
49722;SDS011;43484;43.608;1.458;2023-03-12T16:51:42;0.60;;;0.25;;
49722;SDS011;43484;43.608;1.458;2023-03-12T16:54:09;2.17;;;0.75;;
49722;SDS011;43484;43.608;1.458;2023-03-12T16:56:37;5.00;;;2.33;;
49722;SDS011;43484;43.608;1.458;2023-03-12T16:59:11;4.55;;;0.75;;
49722;SDS011;43484;43.608;1.458;2023-03-12T17:01:48;3.30;;;0.30;;